Lady Debora — V2QG7 — position and weather

sailwx.info

Track history (hours):
 
Tides and Currents Weather Stations Pressure Air Temp Water Temp Dewpoint Dewpoint Depression Visibility Wind Speed Wind Dir Waves Ship Positions

Lady Debora

Last reported at 2016-Aug-29 00:18 UTC. Time now 2016-Aug-29 05:26 UTC.
Position N 42°02' E 010°29'.

Length 107 m; draft 6.3 m.

Type: Cargo ship. MMSI: 304010760.

Date/timePositionNaut miles runAvg speedWind from/ knotsBaromVisibWave heightAir tempDewpointWater temp
2016-Aug-29 00:18N 42°02' E 010°29'1110.3
2016-Aug-28 23:14N 41°54' E 010°40'710.5
2016-Aug-28 22:32N 41°50' E 010°47'28 9.4
2016-Aug-28 19:31N 41°31' E 011°16'9 9.2
2016-Aug-28 18:33N 41°25' E 011°25'9 9.2
2016-Aug-28 17:33N 41°19' E 011°34'12 9.4
2016-Aug-28 16:14N 41°11' E 011°47'7 9.5
2016-Aug-28 15:33N 41°07' E 011°53'27 8.9
2016-Aug-28 12:32N 40°49' E 012°20'18 8.7
2016-Aug-28 10:25N 40°37' E 012°39'48 9.5
2016-Aug-28 05:23N 40°06' E 013°26'98 9.7
2016-Aug-27 19:17N 39°01' E 015°03'810.3
2016-Aug-27 18:31N 38°56' E 015°11'1010.1
2016-Aug-27 17:33N 38°50' E 015°20'10 9.6
2016-Aug-27 16:33N 38°41' E 015°26'10 9.9
2016-Aug-27 15:33N 38°33' E 015°32'10 9.8
2016-Aug-27 14:33N 38°24' E 015°38'9 8.9
2016-Aug-27 13:34N 38°15' E 015°41'9 9.5
2016-Aug-27 12:33N 38°07' E 015°36'10 9.7
2016-Aug-27 11:33N 37°57' E 015°37'1010.2
2016-Aug-27 10:33N 37°52' E 015°49'1010.1
2016-Aug-27 09:31N 37°49' E 016°01'  
2016-Aug-22 03:21N 44°33' E 030°17'11 9.8
2016-Aug-22 02:16N 44°43' E 030°21'7 9.7
2016-Aug-22 01:30N 44°51' E 030°23'9310.1
2016-Aug-21 16:21N 46°20' E 030°55'910.5
2016-Aug-21 15:31N 46°29' E 030°56'29 8.6
2016-Aug-21 12:09N 46°35' E 031°37'5 8.9
2016-Aug-21 11:33N 46°36' E 031°44'8 8.4
2016-Aug-21 10:33N 46°39' E 031°56'8 7.7
2016-Aug-21 09:33N 46°47' E 031°53'8 8.3
2016-Aug-21 08:33N 46°53' E 032°00'3 3.1
2016-Aug-21 07:33N 46°56' E 032°01'0 0.0
2016-Aug-21 06:33N 46°56' E 032°01'0 0.0
2016-Aug-21 05:33N 46°56' E 032°01'0 0.0
2016-Aug-21 04:33N 46°56' E 032°01'0 0.0
2016-Aug-21 03:33N 46°56' E 032°01'0 0.0
2016-Aug-21 02:33N 46°56' E 032°01'0 0.0
2016-Aug-21 01:33N 46°56' E 032°01'0 0.0
2016-Aug-21 00:33N 46°56' E 032°01'0 0.0
2016-Aug-20 23:33N 46°56' E 032°01'0 0.0
2016-Aug-20 22:33N 46°56' E 032°01'0 0.0
2016-Aug-20 21:33N 46°56' E 032°01'0 0.0
2016-Aug-20 20:33N 46°56' E 032°01'0 0.0
2016-Aug-20 19:33N 46°56' E 032°01'0 0.0
2016-Aug-20 18:30N 46°56' E 032°01'0 0.0
2016-Aug-20 17:33N 46°56' E 032°01'0 0.0
2016-Aug-20 16:33N 46°56' E 032°01'0 0.0
2016-Aug-20 15:33N 46°56' E 032°01'0 0.0
2016-Aug-20 14:33N 46°56' E 032°01'0 0.0
2016-Aug-20 13:33N 46°56' E 032°01'0 0.0
2016-Aug-20 12:33N 46°56' E 032°01'0 0.0
2016-Aug-20 11:33N 46°56' E 032°01'0 0.0
2016-Aug-20 10:30N 46°56' E 032°01'0 0.0
2016-Aug-20 09:33N 46°56' E 032°01'0 0.0
2016-Aug-20 08:33N 46°56' E 032°01'0 0.0
2016-Aug-20 07:33N 46°56' E 032°01'0 0.0
2016-Aug-20 06:33N 46°56' E 032°01'1 0.9
2016-Aug-20 05:33N 46°56' E 031°60'0 0.0
2016-Aug-20 04:33N 46°56' E 031°60'0 0.0
2016-Aug-20 03:33N 46°56' E 031°60'0 0.0
2016-Aug-20 02:33N 46°56' E 031°60'0 0.0
2016-Aug-20 01:33N 46°56' E 031°60'0 0.0
2016-Aug-20 00:33N 46°56' E 031°60'0 0.0
2016-Aug-19 23:33N 46°56' E 031°60'0 0.0
2016-Aug-19 22:33N 46°56' E 031°60'0 0.1
2016-Aug-19 21:33N 46°56' E 031°60'0 0.0
2016-Aug-19 20:33N 46°56' E 031°60'0 0.0
2016-Aug-19 19:33N 46°56' E 031°60'0 0.0
2016-Aug-19 18:33N 46°56' E 031°60'0 0.0
2016-Aug-19 17:33N 46°56' E 031°60'0 0.0
2016-Aug-19 16:33N 46°56' E 031°60'0 0.0
2016-Aug-19 15:33N 46°56' E 031°60'4 4.4
2016-Aug-19 14:33N 46°52' E 031°59'8 8.3
2016-Aug-19 13:33N 46°44' E 031°56'9 8.9
2016-Aug-19 12:33N 46°36' E 031°49'1010.2
2016-Aug-19 11:32N 46°35' E 031°34'13 9.4
2016-Aug-19 10:11N 46°35' E 031°16'710.4
2016-Aug-19 09:33N 46°35' E 031°06'7 7.1
2016-Aug-19 08:33N 46°32' E 030°57'8 8.0
2016-Aug-19 07:33N 46°25' E 031°02'2 1.0
2016-Aug-19 05:27N 46°23' E 031°04'  
Track history (hours):
 
Tides and Currents Weather Stations Pressure Air Temp Water Temp Dewpoint Dewpoint Depression Visibility Wind Speed Wind Dir Waves Ship Positions

Lady Debora

Last reported at 2016-Aug-29 00:18 UTC. Time now 2016-Aug-29 05:26 UTC.
Position N 42°02' E 010°29'.

Length 107 m; draft 6.3 m.

Type: Cargo ship. MMSI: 304010760.

Date/timePositionNaut miles runAvg speedWind from/ knotsBaromVisibWave heightAir tempDewpointWater temp
2016-Aug-29 00:18N 42°02' E 010°29'1110.3
2016-Aug-28 23:14N 41°54' E 010°40'710.5
2016-Aug-28 22:32N 41°50' E 010°47'28 9.4
2016-Aug-28 19:31N 41°31' E 011°16'9 9.2
2016-Aug-28 18:33N 41°25' E 011°25'9 9.2
2016-Aug-28 17:33N 41°19' E 011°34'12 9.4
2016-Aug-28 16:14N 41°11' E 011°47'7 9.5
2016-Aug-28 15:33N 41°07' E 011°53'27 8.9
2016-Aug-28 12:32N 40°49' E 012°20'18 8.7
2016-Aug-28 10:25N 40°37' E 012°39'48 9.5
2016-Aug-28 05:23N 40°06' E 013°26'98 9.7
2016-Aug-27 19:17N 39°01' E 015°03'810.3
2016-Aug-27 18:31N 38°56' E 015°11'1010.1
2016-Aug-27 17:33N 38°50' E 015°20'10 9.6
2016-Aug-27 16:33N 38°41' E 015°26'10 9.9
2016-Aug-27 15:33N 38°33' E 015°32'10 9.8
2016-Aug-27 14:33N 38°24' E 015°38'9 8.9
2016-Aug-27 13:34N 38°15' E 015°41'9 9.5
2016-Aug-27 12:33N 38°07' E 015°36'10 9.7
2016-Aug-27 11:33N 37°57' E 015°37'1010.2
2016-Aug-27 10:33N 37°52' E 015°49'1010.1
2016-Aug-27 09:31N 37°49' E 016°01'  
2016-Aug-22 03:21N 44°33' E 030°17'11 9.8
2016-Aug-22 02:16N 44°43' E 030°21'7 9.7
2016-Aug-22 01:30N 44°51' E 030°23'9310.1
2016-Aug-21 16:21N 46°20' E 030°55'910.5
2016-Aug-21 15:31N 46°29' E 030°56'29 8.6
2016-Aug-21 12:09N 46°35' E 031°37'5 8.9
2016-Aug-21 11:33N 46°36' E 031°44'8 8.4
2016-Aug-21 10:33N 46°39' E 031°56'8 7.7
2016-Aug-21 09:33N 46°47' E 031°53'8 8.3
2016-Aug-21 08:33N 46°53' E 032°00'3 3.1
2016-Aug-21 07:33N 46°56' E 032°01'0 0.0
2016-Aug-21 06:33N 46°56' E 032°01'0 0.0
2016-Aug-21 05:33N 46°56' E 032°01'0 0.0
2016-Aug-21 04:33N 46°56' E 032°01'0 0.0
2016-Aug-21 03:33N 46°56' E 032°01'0 0.0
2016-Aug-21 02:33N 46°56' E 032°01'0 0.0
2016-Aug-21 01:33N 46°56' E 032°01'0 0.0
2016-Aug-21 00:33N 46°56' E 032°01'0 0.0
2016-Aug-20 23:33N 46°56' E 032°01'0 0.0
2016-Aug-20 22:33N 46°56' E 032°01'0 0.0
2016-Aug-20 21:33N 46°56' E 032°01'0 0.0
2016-Aug-20 20:33N 46°56' E 032°01'0 0.0
2016-Aug-20 19:33N 46°56' E 032°01'0 0.0
2016-Aug-20 18:30N 46°56' E 032°01'0 0.0
2016-Aug-20 17:33N 46°56' E 032°01'0 0.0
2016-Aug-20 16:33N 46°56' E 032°01'0 0.0
2016-Aug-20 15:33N 46°56' E 032°01'0 0.0
2016-Aug-20 14:33N 46°56' E 032°01'0 0.0
2016-Aug-20 13:33N 46°56' E 032°01'0 0.0
2016-Aug-20 12:33N 46°56' E 032°01'0 0.0
2016-Aug-20 11:33N 46°56' E 032°01'0 0.0
2016-Aug-20 10:30N 46°56' E 032°01'0 0.0
2016-Aug-20 09:33N 46°56' E 032°01'0 0.0
2016-Aug-20 08:33N 46°56' E 032°01'0 0.0
2016-Aug-20 07:33N 46°56' E 032°01'0 0.0
2016-Aug-20 06:33N 46°56' E 032°01'1 0.9
2016-Aug-20 05:33N 46°56' E 031°60'0 0.0
2016-Aug-20 04:33N 46°56' E 031°60'0 0.0
2016-Aug-20 03:33N 46°56' E 031°60'0 0.0
2016-Aug-20 02:33N 46°56' E 031°60'0 0.0
2016-Aug-20 01:33N 46°56' E 031°60'0 0.0
2016-Aug-20 00:33N 46°56' E 031°60'0 0.0
2016-Aug-19 23:33N 46°56' E 031°60'0 0.0
2016-Aug-19 22:33N 46°56' E 031°60'0 0.1
2016-Aug-19 21:33N 46°56' E 031°60'0 0.0
2016-Aug-19 20:33N 46°56' E 031°60'0 0.0
2016-Aug-19 19:33N 46°56' E 031°60'0 0.0
2016-Aug-19 18:33N 46°56' E 031°60'0 0.0
2016-Aug-19 17:33N 46°56' E 031°60'0 0.0
2016-Aug-19 16:33N 46°56' E 031°60'0 0.0
2016-Aug-19 15:33N 46°56' E 031°60'4 4.4
2016-Aug-19 14:33N 46°52' E 031°59'8 8.3
2016-Aug-19 13:33N 46°44' E 031°56'9 8.9
2016-Aug-19 12:33N 46°36' E 031°49'1010.2
2016-Aug-19 11:32N 46°35' E 031°34'13 9.4
2016-Aug-19 10:11N 46°35' E 031°16'710.4
2016-Aug-19 09:33N 46°35' E 031°06'7 7.1
2016-Aug-19 08:33N 46°32' E 030°57'8 8.0
2016-Aug-19 07:33N 46°25' E 031°02'2 1.0
2016-Aug-19 05:27N 46°23' E 031°04'  

Dump ship's entire track history